Time;durP1;ratioP1;P1;durP2;ratioP2;P2;SDS_P1;SDS_P2;PMS_P1;PMS_P2;Temp;Humidity;BMP_temperature;BMP_pressure;BME280_temperature;BME280_humidity;BME280_pressure;Samples;Min_cycle;Max_cycle;Signal;HPM_P1;HPM_P2
2022/09/18 00:01:13;;;;;;;;;;;10.30;99.90;;;;;;5035150;28;19969;-62
2022/09/18 00:03:41;;;;;;;;;;;10.20;99.90;;;;;;5036681;28;20450;-62
2022/09/18 00:06:10;;;;;;;;;;;10.20;99.90;;;;;;5034430;28;19967;-62
2022/09/18 00:08:39;;;;;;;;;;;10.20;99.90;;;;;;5033099;28;19984;-62
2022/09/18 00:11:09;;;;;;;;;;;10.20;99.90;;;;;;5043736;28;19967;-62
2022/09/18 00:13:38;;;;;;;;;;;10.20;99.90;;;;;;5035968;28;20442;-62
2022/09/18 00:16:06;;;;;;;;;;;10.20;99.90;;;;;;5042816;28;20348;-62
2022/09/18 00:18:34;;;;;;;;;;;10.20;99.90;;;;;;5037237;28;19959;-61
2022/09/18 00:21:03;;;;;;;;;;;10.20;99.90;;;;;;5036346;28;19963;-62
2022/09/18 00:23:30;;;;;;;;;;;10.20;99.90;;;;;;5035260;28;20073;-62
2022/09/18 00:26:00;;;;;;;;;;;10.20;99.90;;;;;;5040692;28;19963;-63
2022/09/18 00:28:28;;;;;;;;;;;10.20;99.90;;;;;;5041601;28;19968;-62
2022/09/18 00:30:55;;;;;;;;;;;10.20;99.90;;;;;;5039196;28;19963;-63
2022/09/18 00:33:23;;;;;;;;;;;10.20;99.90;;;;;;5039372;28;19967;-62
2022/09/18 00:35:50;;;;;;;;;;;10.20;99.90;;;;;;5039794;28;19973;-62
2022/09/18 00:38:18;;;;;;;;;;;10.20;99.90;;;;;;5037473;28;19959;-62
2022/09/18 00:40:46;;;;;;;;;;;10.20;99.90;;;;;;5041932;28;19963;-61
2022/09/18 00:43:22;;;;;;;;;;;10.20;99.90;;;;;;5044740;28;19982;-62
2022/09/18 00:45:52;;;;;;;;;;;10.20;99.90;;;;;;5037728;28;20435;-62
2022/09/18 00:48:20;;;;;;;;;;;10.20;99.90;;;;;;5042183;28;19963;-62
2022/09/18 00:50:48;;;;;;;;;;;10.20;99.90;;;;;;5033029;28;19962;-62
2022/09/18 00:53:16;;;;;;;;;;;10.20;99.90;;;;;;5042747;28;19963;-62
2022/09/18 00:55:44;;;;;;;;;;;10.20;99.90;;;;;;5032312;28;19970;-62
2022/09/18 00:58:12;;;;;;;;;;;10.20;99.90;;;;;;5045373;28;19963;-62
2022/09/18 01:00:41;;;;;;;;;;;10.20;99.90;;;;;;5043125;28;20439;-62
2022/09/18 01:03:09;;;;;;;;;;;10.20;99.90;;;;;;5036479;28;20454;-62
2022/09/18 01:05:45;;;;;;;;;;;10.20;99.90;;;;;;5048740;28;19967;-63
2022/09/18 01:08:17;;;;;;;;;;;10.20;99.90;;;;;;5033343;28;20053;-62
2022/09/18 01:10:50;;;;;;;;;;;10.20;99.90;;;;;;5038192;28;19959;-62
2022/09/18 01:13:25;;;;;;;;;;;10.20;99.90;;;;;;5038647;28;19963;-62
2022/09/18 01:15:57;;;;;;;;;;;10.20;99.90;;;;;;5035570;28;19962;-62
2022/09/18 01:18:27;;;;;;;;;;;10.20;99.90;;;;;;5040487;28;19968;-63
2022/09/18 01:21:00;;;;;;;;;;;10.30;99.90;;;;;;5038382;28;20322;-62
2022/09/18 01:23:45;;;;;;;;;;;10.30;99.90;;;;;;5040316;28;19963;-62
2022/09/18 01:26:19;;;;;;;;;;;10.40;99.90;;;;;;5026567;28;19970;-62
2022/09/18 01:28:52;;;;;;;;;;;10.40;99.90;;;;;;5045460;28;20337;-62
2022/09/18 01:31:22;;;;;;;;;;;10.40;99.90;;;;;;5032979;28;19963;-62
2022/09/18 01:33:53;;;;;;;;;;;10.40;99.90;;;;;;5042336;28;20424;-62
2022/09/18 01:36:21;;;;;;;;;;;10.40;99.90;;;;;;5040041;28;19963;-62
2022/09/18 01:38:50;;;;;;;;;;;10.40;99.90;;;;;;5033559;28;19967;-62
2022/09/18 01:41:20;;;;;;;;;;;10.50;99.90;;;;;;5038545;28;19963;-62
2022/09/18 01:43:50;;;;;;;;;;;10.50;99.90;;;;;;5037835;28;19989;-62
2022/09/18 01:46:19;;;;;;;;;;;10.50;99.90;;;;;;5040256;28;19979;-62
2022/09/18 01:48:48;;;;;;;;;;;10.50;99.90;;;;;;5031977;28;20424;-62
2022/09/18 01:51:19;;;;;;;;;;;10.50;99.90;;;;;;5030800;28;19967;-62
2022/09/18 01:53:48;;;;;;;;;;;10.50;99.90;;;;;;5033454;28;19982;-62
2022/09/18 01:56:17;;;;;;;;;;;10.50;99.90;;;;;;5038624;28;19974;-62
2022/09/18 01:58:46;;;;;;;;;;;10.50;99.90;;;;;;5035550;28;19963;-62
2022/09/18 02:01:16;;;;;;;;;;;10.50;99.90;;;;;;5042994;28;20049;-63
2022/09/18 02:03:46;;;;;;;;;;;10.60;99.90;;;;;;5036756;28;19970;-63
2022/09/18 02:06:16;;;;;;;;;;;10.50;99.90;;;;;;5036057;28;20369;-62
2022/09/18 02:08:46;;;;;;;;;;;10.60;99.90;;;;;;5038851;28;20452;-62
2022/09/18 02:11:15;;;;;;;;;;;10.60;99.90;;;;;;5042881;28;19972;-62
2022/09/18 02:13:46;;;;;;;;;;;10.70;99.90;;;;;;5033947;28;19963;-62
2022/09/18 02:16:17;;;;;;;;;;;10.70;99.90;;;;;;5033458;28;19967;-62
2022/09/18 02:18:48;;;;;;;;;;;10.70;99.90;;;;;;5032074;28;20070;-62
2022/09/18 02:21:18;;;;;;;;;;;10.70;99.90;;;;;;5031985;28;20420;-62
2022/09/18 02:23:46;;;;;;;;;;;10.70;99.90;;;;;;5032050;28;20365;-62
2022/09/18 02:26:14;;;;;;;;;;;10.70;99.90;;;;;;5033396;28;19981;-62
2022/09/18 02:28:42;;;;;;;;;;;10.70;99.90;;;;;;5037199;28;20444;-62
2022/09/18 02:31:11;;;;;;;;;;;10.70;99.90;;;;;;5032015;28;19970;-62
2022/09/18 02:33:39;;;;;;;;;;;10.70;99.90;;;;;;5030954;28;19964;-62
2022/09/18 02:36:26;;;;;;;;;;;10.70;99.90;;;;;;5031464;28;20335;-62
2022/09/18 02:39:00;;;;;;;;;;;10.70;99.90;;;;;;5032581;28;19967;-62
2022/09/18 02:41:34;;;;;;;;;;;10.70;99.90;;;;;;5038828;28;20490;-63
2022/09/18 02:44:06;;;;;;;;;;;10.80;99.90;;;;;;5035875;28;19963;-62
2022/09/18 02:46:37;;;;;;;;;;;10.70;99.90;;;;;;5031493;28;19963;-62
2022/09/18 02:49:10;;;;;;;;;;;10.80;99.90;;;;;;5040019;28;19969;-63
2022/09/18 02:51:42;;;;;;;;;;;10.70;99.90;;;;;;5044233;28;19967;-63
2022/09/18 02:54:12;;;;;;;;;;;10.80;99.90;;;;;;5034217;28;19989;-62
2022/09/18 02:56:42;;;;;;;;;;;10.80;99.90;;;;;;5037322;28;20659;-62
2022/09/18 02:59:12;;;;;;;;;;;10.80;99.90;;;;;;5042089;28;19962;-62
2022/09/18 03:01:41;;;;;;;;;;;10.80;99.90;;;;;;5040962;28;20037;-62
2022/09/18 03:04:11;;;;;;;;;;;10.80;99.90;;;;;;5035892;28;19967;-63
2022/09/18 03:06:38;;;;;;;;;;;10.80;99.90;;;;;;5040452;28;19969;-62
2022/09/18 03:09:06;;;;;;;;;;;10.90;99.90;;;;;;5041718;28;19969;-62
2022/09/18 03:11:35;;;;;;;;;;;10.80;99.90;;;;;;5040577;28;19962;-62
2022/09/18 03:14:03;;;;;;;;;;;10.90;99.90;;;;;;5045245;28;19967;-63
2022/09/18 03:16:31;;;;;;;;;;;10.90;99.90;;;;;;5036242;28;19967;-62
2022/09/18 03:18:59;;;;;;;;;;;10.90;99.90;;;;;;5043458;28;19974;-62
2022/09/18 03:21:27;;;;;;;;;;;10.80;99.90;;;;;;5039923;28;19959;-63
2022/09/18 03:23:55;;;;;;;;;;;10.90;99.90;;;;;;5045743;28;19974;-62
2022/09/18 03:26:22;;;;;;;;;;;10.90;99.90;;;;;;5035762;28;19966;-62
2022/09/18 03:28:51;;;;;;;;;;;10.90;99.90;;;;;;5043905;28;19966;-62
2022/09/18 03:31:19;;;;;;;;;;;10.90;99.90;;;;;;5036947;28;19969;-62
2022/09/18 03:33:47;;;;;;;;;;;10.90;99.90;;;;;;5042301;28;19985;-62
2022/09/18 03:36:15;;;;;;;;;;;10.90;99.90;;;;;;5037224;28;20033;-62
2022/09/18 03:38:43;;;;;;;;;;;10.90;99.90;;;;;;5040602;28;19963;-63
2022/09/18 03:41:10;;;;;;;;;;;10.90;99.90;;;;;;5037044;28;19965;-62
2022/09/18 03:43:38;;;;;;;;;;;10.90;99.90;;;;;;5033604;28;19971;-62
2022/09/18 03:46:07;;;;;;;;;;;11.00;99.90;;;;;;5038409;28;19959;-62
2022/09/18 03:48:35;;;;;;;;;;;11.00;99.90;;;;;;5037572;28;19959;-62
2022/09/18 03:51:03;;;;;;;;;;;11.00;99.90;;;;;;5039625;28;19970;-62
2022/09/18 03:53:30;;;;;;;;;;;11.00;99.90;;;;;;5036404;28;19978;-62
2022/09/18 03:55:58;;;;;;;;;;;11.00;99.90;;;;;;5034399;28;19963;-62
2022/09/18 03:58:26;;;;;;;;;;;11.00;99.90;;;;;;5043305;28;20015;-62
2022/09/18 04:00:54;;;;;;;;;;;11.00;99.90;;;;;;5040906;28;19963;-62
2022/09/18 04:03:23;;;;;;;;;;;11.00;99.90;;;;;;5040794;28;19959;-62
2022/09/18 04:05:51;;;;;;;;;;;11.00;99.90;;;;;;5039190;28;19969;-62
2022/09/18 04:08:18;;;;;;;;;;;11.00;99.90;;;;;;5046450;28;19969;-64
2022/09/18 04:10:46;;;;;;;;;;;11.00;99.90;;;;;;5034262;28;19963;-62
2022/09/18 04:13:14;;;;;;;;;;;10.90;99.90;;;;;;5045304;28;19963;-62
2022/09/18 04:15:43;;;;;;;;;;;10.90;99.90;;;;;;5035435;28;19967;-62
2022/09/18 04:18:11;;;;;;;;;;;10.90;99.90;;;;;;5040695;28;19963;-62
2022/09/18 04:20:40;;;;;;;;;;;10.90;99.90;;;;;;5043852;28;20423;-63
2022/09/18 04:23:10;;;;;;;;;;;10.90;99.90;;;;;;5074284;22;19963;-71
2022/09/18 04:25:38;;;;;;;;;;;10.90;99.90;;;;;;5046398;28;19967;-73
2022/09/18 04:28:05;;;;;;;;;;;11.00;99.90;;;;;;5055104;28;20345;-74
2022/09/18 04:30:33;;;;;;;;;;;10.90;99.90;;;;;;5053748;28;19994;-75
2022/09/18 04:33:01;;;;;;;;;;;11.00;99.90;;;;;;5036616;28;19963;-75
2022/09/18 04:35:29;;;;;;;;;;;10.90;99.90;;;;;;5034659;28;20066;-73
2022/09/18 04:37:58;;;;;;;;;;;10.90;99.90;;;;;;5033730;28;19967;-74
2022/09/18 04:40:25;;;;;;;;;;;11.00;99.90;;;;;;5034028;28;19963;-74
2022/09/18 04:42:53;;;;;;;;;;;11.00;99.90;;;;;;5034078;28;19963;-74
2022/09/18 04:45:21;;;;;;;;;;;11.00;99.90;;;;;;5035137;28;19963;-74
2022/09/18 04:47:49;;;;;;;;;;;11.00;99.90;;;;;;5034796;28;20331;-74
2022/09/18 04:50:17;;;;;;;;;;;11.00;99.90;;;;;;5037567;28;19967;-75
2022/09/18 04:52:44;;;;;;;;;;;11.00;99.90;;;;;;5033566;28;19963;-74
2022/09/18 04:55:14;;;;;;;;;;;11.00;99.90;;;;;;5033737;28;19970;-73
2022/09/18 04:57:42;;;;;;;;;;;11.00;99.90;;;;;;5033607;28;19978;-75
2022/09/18 05:00:10;;;;;;;;;;;11.10;99.90;;;;;;5032206;28;19970;-75
2022/09/18 05:02:38;;;;;;;;;;;11.00;99.90;;;;;;5027577;28;19985;-75
2022/09/18 05:05:06;;;;;;;;;;;11.00;99.90;;;;;;5027851;28;20050;-74
2022/09/18 05:07:34;;;;;;;;;;;11.00;99.90;;;;;;5033956;28;20320;-74
2022/09/18 05:10:02;;;;;;;;;;;11.00;99.90;;;;;;5025374;28;19970;-76
2022/09/18 05:12:31;;;;;;;;;;;11.00;99.90;;;;;;5033821;28;19963;-75
2022/09/18 05:14:58;;;;;;;;;;;11.00;99.90;;;;;;5032336;28;19960;-74
2022/09/18 05:17:26;;;;;;;;;;;11.00;99.90;;;;;;5035016;28;20006;-76
2022/09/18 05:19:54;;;;;;;;;;;11.00;99.90;;;;;;5039450;28;19963;-73
2022/09/18 05:22:21;;;;;;;;;;;11.00;99.90;;;;;;5031738;28;19969;-74
2022/09/18 05:24:49;;;;;;;;;;;11.10;99.90;;;;;;5033050;28;19969;-75
2022/09/18 05:27:17;;;;;;;;;;;11.10;99.90;;;;;;5033181;28;20362;-75
2022/09/18 05:29:46;;;;;;;;;;;11.00;99.90;;;;;;5032123;28;20330;-74
2022/09/18 05:32:13;;;;;;;;;;;11.10;99.90;;;;;;5032817;28;20462;-73
2022/09/18 05:34:41;;;;;;;;;;;11.10;99.90;;;;;;5032659;28;19963;-76
2022/09/18 05:37:09;;;;;;;;;;;11.00;99.90;;;;;;5032782;28;19991;-75
2022/09/18 05:39:37;;;;;;;;;;;11.00;99.90;;;;;;5024513;28;20065;-74
2022/09/18 05:42:05;;;;;;;;;;;11.00;99.90;;;;;;5032564;28;20334;-74
2022/09/18 05:44:33;;;;;;;;;;;11.00;99.90;;;;;;5033157;28;19978;-74
2022/09/18 05:47:02;;;;;;;;;;;11.00;99.90;;;;;;5038149;28;19964;-76
2022/09/18 05:49:30;;;;;;;;;;;11.00;99.90;;;;;;5031366;28;20444;-75
2022/09/18 05:51:57;;;;;;;;;;;11.00;99.90;;;;;;5033107;28;19973;-75
2022/09/18 05:54:25;;;;;;;;;;;11.10;99.90;;;;;;5032103;28;19969;-76
2022/09/18 05:56:53;;;;;;;;;;;11.00;99.90;;;;;;5032634;28;19974;-74
2022/09/18 05:59:21;;;;;;;;;;;11.00;99.90;;;;;;5031939;28;20310;-74
2022/09/18 06:01:48;;;;;;;;;;;11.10;99.90;;;;;;5032863;28;19969;-74
2022/09/18 06:04:17;;;;;;;;;;;11.10;99.90;;;;;;5032681;28;20009;-74
2022/09/18 06:06:45;;;;;;;;;;;11.10;99.90;;;;;;5031543;28;19985;-74
2022/09/18 06:09:13;;;;;;;;;;;11.10;99.90;;;;;;5031799;28;20062;-75
2022/09/18 06:11:41;;;;;;;;;;;11.10;99.90;;;;;;5032384;28;19963;-74
2022/09/18 06:14:09;;;;;;;;;;;11.10;99.90;;;;;;5032111;28;20062;-74
2022/09/18 06:16:36;;;;;;;;;;;11.10;99.90;;;;;;5028477;28;20053;-75
2022/09/18 06:19:09;;;;;;;;;;;11.10;99.90;;;;;;5032226;28;20002;-76
2022/09/18 06:21:38;;;;;;;;;;;11.10;99.90;;;;;;5031771;28;19966;-74
2022/09/18 06:24:06;;;;;;;;;;;11.10;99.90;;;;;;5033164;28;20058;-75
2022/09/18 06:26:33;;;;;;;;;;;11.20;99.90;;;;;;5031371;28;20404;-75
2022/09/18 06:29:01;;;;;;;;;;;11.20;99.90;;;;;;5032231;28;20101;-74
2022/09/18 06:31:29;;;;;;;;;;;11.20;99.90;;;;;;5031101;28;20057;-74
2022/09/18 06:33:57;;;;;;;;;;;11.20;99.90;;;;;;5034244;28;19967;-74
2022/09/18 06:36:24;;;;;;;;;;;11.20;99.90;;;;;;5035992;28;20054;-75
2022/09/18 06:38:54;;;;;;;;;;;11.30;99.90;;;;;;5036297;28;19963;-75
2022/09/18 06:41:23;;;;;;;;;;;11.30;99.90;;;;;;5036024;28;19963;-75
2022/09/18 06:43:50;;;;;;;;;;;11.30;99.90;;;;;;5036022;28;19963;-75
2022/09/18 06:46:18;;;;;;;;;;;11.30;99.90;;;;;;5036032;28;19963;-74
2022/09/18 06:48:47;;;;;;;;;;;11.40;99.90;;;;;;5044885;28;20444;-74
2022/09/18 06:51:15;;;;;;;;;;;11.40;99.90;;;;;;5042398;28;19963;-74
2022/09/18 06:53:43;;;;;;;;;;;11.40;99.90;;;;;;5035350;28;19970;-74
2022/09/18 06:56:12;;;;;;;;;;;11.50;99.90;;;;;;5035436;28;19975;-76
2022/09/18 06:58:40;;;;;;;;;;;11.50;99.90;;;;;;5051911;28;20357;-75
2022/09/18 07:01:08;;;;;;;;;;;11.60;99.90;;;;;;5035913;28;20436;-75
2022/09/18 07:03:35;;;;;;;;;;;11.60;99.90;;;;;;5031163;28;19959;-75
2022/09/18 07:06:03;;;;;;;;;;;11.70;99.90;;;;;;5035591;28;19977;-74
2022/09/18 07:08:31;;;;;;;;;;;11.70;99.90;;;;;;5034947;28;20424;-73
2022/09/18 07:11:00;;;;;;;;;;;11.70;99.90;;;;;;5035648;28;19963;-75
2022/09/18 07:13:31;;;;;;;;;;;11.80;99.90;;;;;;5035238;28;20357;-74
2022/09/18 07:15:59;;;;;;;;;;;11.80;99.90;;;;;;5034865;28;20058;-75
2022/09/18 07:18:27;;;;;;;;;;;11.80;99.90;;;;;;5039987;28;19963;-76
2022/09/18 07:20:54;;;;;;;;;;;11.80;99.90;;;;;;5037414;28;20057;-73
2022/09/18 07:23:23;;;;;;;;;;;11.90;99.90;;;;;;5034235;28;19970;-74
2022/09/18 07:25:50;;;;;;;;;;;11.90;99.90;;;;;;5035063;28;20074;-74
2022/09/18 07:28:18;;;;;;;;;;;11.90;99.90;;;;;;5035101;28;19964;-74
2022/09/18 07:30:47;;;;;;;;;;;11.90;99.90;;;;;;5034857;28;19963;-74
2022/09/18 07:33:15;;;;;;;;;;;11.80;99.90;;;;;;5035363;28;19967;-74
2022/09/18 07:35:42;;;;;;;;;;;11.80;99.90;;;;;;5034462;28;19974;-73
2022/09/18 07:38:10;;;;;;;;;;;11.80;99.90;;;;;;5034622;28;20424;-75
2022/09/18 07:40:39;;;;;;;;;;;11.80;99.90;;;;;;5027580;28;20464;-74
2022/09/18 07:43:07;;;;;;;;;;;11.90;99.90;;;;;;5033611;28;20521;-76
2022/09/18 07:45:35;;;;;;;;;;;11.90;99.90;;;;;;5033581;28;19963;-74
2022/09/18 07:48:05;;;;;;;;;;;11.90;99.90;;;;;;5035728;28;20061;-74
2022/09/18 07:50:33;;;;;;;;;;;11.90;99.90;;;;;;5031783;28;19960;-74
2022/09/18 07:53:02;;;;;;;;;;;11.90;99.90;;;;;;5034474;28;19963;-74
2022/09/18 07:55:30;;;;;;;;;;;12.00;99.90;;;;;;5033240;28;20365;-74
2022/09/18 07:57:59;;;;;;;;;;;12.00;99.90;;;;;;5033548;28;20328;-76
2022/09/18 08:00:28;;;;;;;;;;;12.00;99.90;;;;;;5033174;28;19959;-74
2022/09/18 08:03:00;;;;;;;;;;;12.10;99.90;;;;;;5034178;28;19963;-74
2022/09/18 08:05:30;;;;;;;;;;;12.30;99.90;;;;;;5029774;28;19963;-74
2022/09/18 08:08:01;;;;;;;;;;;12.30;99.90;;;;;;5034462;28;19963;-74
2022/09/18 08:10:29;;;;;;;;;;;12.40;99.90;;;;;;5032617;28;20074;-75
2022/09/18 08:12:56;;;;;;;;;;;12.40;99.90;;;;;;5034259;28;20562;-74
2022/09/18 08:15:24;;;;;;;;;;;12.50;99.90;;;;;;5033330;28;20342;-74
2022/09/18 08:17:52;;;;;;;;;;;12.50;99.90;;;;;;5034192;28;19978;-74
2022/09/18 08:20:20;;;;;;;;;;;12.60;99.90;;;;;;5031782;28;20037;-74
2022/09/18 08:22:49;;;;;;;;;;;12.70;99.90;;;;;;5033428;28;20025;-75
2022/09/18 08:25:17;;;;;;;;;;;12.80;99.90;;;;;;5033226;28;19959;-74
2022/09/18 08:27:45;;;;;;;;;;;12.80;99.90;;;;;;5034050;28;20054;-74
2022/09/18 08:30:14;;;;;;;;;;;12.90;99.90;;;;;;5026775;28;20002;-74
2022/09/18 08:32:42;;;;;;;;;;;13.00;99.90;;;;;;5027439;28;19970;-74
2022/09/18 08:35:10;;;;;;;;;;;13.00;99.90;;;;;;5024347;28;20349;-75
2022/09/18 08:37:38;;;;;;;;;;;13.00;99.90;;;;;;5025970;28;19963;-75
2022/09/18 08:40:09;;;;;;;;;;;13.10;99.90;;;;;;5033720;28;19963;-73
2022/09/18 08:42:40;;;;;;;;;;;13.10;99.90;;;;;;5033101;28;20375;-75
2022/09/18 08:45:18;;;;;;;;;;;13.10;99.90;;;;;;5032621;28;19970;-76
2022/09/18 08:47:49;;;;;;;;;;;13.10;99.90;;;;;;5030105;28;19974;-74
2022/09/18 08:50:20;;;;;;;;;;;13.10;99.90;;;;;;5033083;28;20009;-74
2022/09/18 08:52:50;;;;;;;;;;;13.20;99.90;;;;;;5038497;28;19970;-74
2022/09/18 08:55:23;;;;;;;;;;;13.20;99.90;;;;;;5032487;28;19975;-73
2022/09/18 08:57:54;;;;;;;;;;;13.30;99.90;;;;;;5033505;28;20041;-74
2022/09/18 09:00:22;;;;;;;;;;;13.40;99.90;;;;;;5031186;28;20050;-71
2022/09/18 09:02:50;;;;;;;;;;;13.40;99.90;;;;;;5033231;28;19985;-76
2022/09/18 09:05:21;;;;;;;;;;;13.40;99.90;;;;;;5031722;28;21275;-74
2022/09/18 09:08:07;;;;;;;;;;;13.40;99.90;;;;;;5033038;28;20117;-73
2022/09/18 09:10:42;;;;;;;;;;;13.40;99.90;;;;;;5027839;28;19963;-76
2022/09/18 09:13:18;;;;;;;;;;;13.40;99.90;;;;;;5032431;28;19978;-73
2022/09/18 09:15:50;;;;;;;;;;;13.50;99.90;;;;;;5032193;28;20363;-74
2022/09/18 09:18:21;;;;;;;;;;;13.50;99.90;;;;;;5033498;28;20002;-75
2022/09/18 09:20:51;;;;;;;;;;;13.60;99.90;;;;;;5031793;28;19971;-74
2022/09/18 09:23:22;;;;;;;;;;;13.70;99.90;;;;;;5040678;28;19991;-74
2022/09/18 09:25:58;;;;;;;;;;;13.80;99.90;;;;;;5031549;28;19978;-75
2022/09/18 09:28:28;;;;;;;;;;;13.90;99.90;;;;;;5033369;28;19975;-75
2022/09/18 09:30:57;;;;;;;;;;;14.00;99.90;;;;;;5032019;28;20356;-75
2022/09/18 09:33:27;;;;;;;;;;;14.00;99.90;;;;;;5032840;28;20351;-74
2022/09/18 09:35:55;;;;;;;;;;;14.00;99.90;;;;;;5028657;28;19990;-75
2022/09/18 09:38:32;;;;;;;;;;;14.10;99.90;;;;;;5033078;28;20443;-74
2022/09/18 09:41:06;;;;;;;;;;;14.20;99.90;;;;;;5031502;28;19977;-74
2022/09/18 09:43:36;;;;;;;;;;;14.20;99.90;;;;;;5032654;28;20441;-74
2022/09/18 09:46:09;;;;;;;;;;;14.20;99.90;;;;;;5031367;28;19967;-76
2022/09/18 09:48:40;;;;;;;;;;;14.20;99.90;;;;;;5026248;28;20388;-75
2022/09/18 09:51:09;;;;;;;;;;;14.30;99.90;;;;;;5033037;28;19973;-76
2022/09/18 09:53:38;;;;;;;;;;;14.50;99.90;;;;;;5033124;28;19975;-75
2022/09/18 09:56:11;;;;;;;;;;;14.50;99.90;;;;;;5032601;28;19968;-74
2022/09/18 09:58:45;;;;;;;;;;;14.40;99.90;;;;;;5031710;28;19971;-74
2022/09/18 10:01:15;;;;;;;;;;;14.40;99.90;;;;;;5026280;28;19976;-74
2022/09/18 10:03:51;;;;;;;;;;;14.30;99.90;;;;;;5031893;28;19974;-76
2022/09/18 10:06:28;;;;;;;;;;;14.40;99.90;;;;;;5032595;28;19974;-76
2022/09/18 10:08:59;;;;;;;;;;;14.30;99.90;;;;;;5031633;28;19974;-75
2022/09/18 10:11:28;;;;;;;;;;;14.20;99.90;;;;;;5032064;28;19967;-75
2022/09/18 10:13:59;;;;;;;;;;;14.10;99.90;;;;;;5033337;28;19967;-74
2022/09/18 10:16:29;;;;;;;;;;;14.10;99.90;;;;;;5031262;28;19967;-73
2022/09/18 10:18:57;;;;;;;;;;;14.00;99.90;;;;;;5031421;28;20041;-74
2022/09/18 10:21:25;;;;;;;;;;;13.90;99.90;;;;;;5035836;28;20452;-74
2022/09/18 10:23:56;;;;;;;;;;;13.90;99.90;;;;;;5058584;22;20029;-62
2022/09/18 10:26:25;;;;;;;;;;;13.80;99.90;;;;;;5031356;28;20450;-62
2022/09/18 10:28:54;;;;;;;;;;;13.90;99.90;;;;;;5031893;28;19973;-62
2022/09/18 10:31:22;;;;;;;;;;;13.80;99.90;;;;;;5029746;28;19972;-63
2022/09/18 10:33:51;;;;;;;;;;;13.80;99.90;;;;;;5031284;28;19967;-62
2022/09/18 10:36:25;;;;;;;;;;;13.70;99.90;;;;;;5029436;28;20005;-62
2022/09/18 10:38:53;;;;;;;;;;;13.70;99.90;;;;;;5025572;28;19967;-62
2022/09/18 10:41:33;;;;;;;;;;;13.60;99.90;;;;;;5030498;28;19969;-63
2022/09/18 10:44:07;;;;;;;;;;;13.50;99.90;;;;;;5031470;28;20478;-63
2022/09/18 10:46:35;;;;;;;;;;;13.60;99.90;;;;;;5030022;28;19963;-62
2022/09/18 10:49:16;;;;;;;;;;;13.60;99.90;;;;;;5031249;28;20022;-62
2022/09/18 10:51:44;;;;;;;;;;;13.70;99.90;;;;;;5034712;28;20340;-63
2022/09/18 10:54:16;;;;;;;;;;;13.80;99.90;;;;;;5033513;28;20105;-62
2022/09/18 10:56:44;;;;;;;;;;;13.80;99.90;;;;;;5031416;28;19994;-63
2022/09/18 10:59:32;;;;;;;;;;;13.90;99.90;;;;;;5030524;28;19973;-62
2022/09/18 11:02:01;;;;;;;;;;;14.00;99.90;;;;;;5026860;28;19993;-63
2022/09/18 11:04:29;;;;;;;;;;;14.00;99.90;;;;;;5030641;28;20331;-62
2022/09/18 11:07:01;;;;;;;;;;;14.20;99.90;;;;;;5030214;28;20418;-62
2022/09/18 11:09:31;;;;;;;;;;;14.30;99.90;;;;;;5030278;28;19971;-63
2022/09/18 11:11:58;;;;;;;;;;;14.30;99.90;;;;;;5029423;28;19974;-62
2022/09/18 11:14:29;;;;;;;;;;;14.20;99.90;;;;;;5029710;28;20343;-62
2022/09/18 11:16:59;;;;;;;;;;;14.30;99.90;;;;;;5030575;28;19968;-62
2022/09/18 11:19:28;;;;;;;;;;;14.40;99.90;;;;;;5030778;28;20338;-62
2022/09/18 11:21:58;;;;;;;;;;;14.40;99.90;;;;;;5039243;28;19997;-62
2022/09/18 11:24:27;;;;;;;;;;;14.50;99.90;;;;;;5034682;28;19974;-62
2022/09/18 11:26:55;;;;;;;;;;;14.50;99.90;;;;;;5033980;28;19967;-62
2022/09/18 11:29:27;;;;;;;;;;;14.40;99.90;;;;;;5033782;28;19969;-62
2022/09/18 11:31:58;;;;;;;;;;;14.40;99.90;;;;;;5034314;28;19967;-62
2022/09/18 11:34:27;;;;;;;;;;;14.30;99.90;;;;;;5033906;28;19970;-62
2022/09/18 11:36:57;;;;;;;;;;;14.30;99.90;;;;;;5033054;28;19997;-62
2022/09/18 11:39:29;;;;;;;;;;;14.30;99.90;;;;;;5034726;28;19971;-63
2022/09/18 11:41:56;;;;;;;;;;;14.20;99.90;;;;;;5029000;28;19974;-63
2022/09/18 11:44:26;;;;;;;;;;;14.10;99.90;;;;;;5034093;28;20416;-62
2022/09/18 11:47:15;;;;;;;;;;;14.00;99.90;;;;;;5034239;28;19967;-63
2022/09/18 11:49:46;;;;;;;;;;;14.00;99.90;;;;;;5016045;28;19967;-62
2022/09/18 11:52:16;;;;;;;;;;;14.00;99.90;;;;;;5044508;28;19974;-62
2022/09/18 11:54:46;;;;;;;;;;;14.00;99.90;;;;;;5033062;28;19973;-63
2022/09/18 11:57:16;;;;;;;;;;;14.10;99.90;;;;;;5032776;28;19967;-63
2022/09/18 11:59:46;;;;;;;;;;;14.20;99.90;;;;;;5033836;28;20452;-63
2022/09/18 12:02:17;;;;;;;;;;;14.20;99.90;;;;;;5033054;28;19970;-63
2022/09/18 12:04:48;;;;;;;;;;;14.30;99.90;;;;;;5033676;28;19967;-64
2022/09/18 12:07:29;;;;;;;;;;;14.30;99.90;;;;;;5032725;28;20105;-63
2022/09/18 12:10:12;;;;;;;;;;;14.30;99.90;;;;;;5029391;28;20452;-63
2022/09/18 12:12:41;;;;;;;;;;;14.40;99.90;;;;;;5030825;28;20467;-64
2022/09/18 12:15:12;;;;;;;;;;;14.40;99.90;;;;;;5032693;28;20048;-63
2022/09/18 12:17:42;;;;;;;;;;;14.50;99.90;;;;;;5030119;28;19991;-64
2022/09/18 12:20:13;;;;;;;;;;;14.50;99.90;;;;;;5033380;28;19974;-63
2022/09/18 12:22:44;;;;;;;;;;;14.50;99.90;;;;;;5035205;28;19967;-63
2022/09/18 12:25:12;;;;;;;;;;;14.50;99.90;;;;;;5034664;28;19973;-64
2022/09/18 12:27:42;;;;;;;;;;;14.50;99.90;;;;;;5032974;28;19978;-63
2022/09/18 12:30:11;;;;;;;;;;;14.60;99.90;;;;;;5033017;28;19970;-63
2022/09/18 12:32:53;;;;;;;;;;;14.50;99.90;;;;;;5032222;28;19968;-64
2022/09/18 12:35:25;;;;;;;;;;;14.60;99.90;;;;;;5031408;28;19974;-63
2022/09/18 12:37:58;;;;;;;;;;;14.60;99.90;;;;;;5032633;28;19967;-63
2022/09/18 12:40:36;;;;;;;;;;;14.70;99.90;;;;;;5033182;28;19977;-63
2022/09/18 12:43:10;;;;;;;;;;;14.80;99.90;;;;;;5032317;28;19971;-64
2022/09/18 12:45:51;;;;;;;;;;;14.70;99.90;;;;;;5030884;28;19982;-63
2022/09/18 12:48:32;;;;;;;;;;;14.60;99.90;;;;;;5031023;28;19967;-64
2022/09/18 12:51:09;;;;;;;;;;;14.60;99.90;;;;;;5036528;28;20337;-64
2022/09/18 12:53:43;;;;;;;;;;;14.60;99.90;;;;;;5032138;28;19987;-63
2022/09/18 12:56:19;;;;;;;;;;;14.60;99.90;;;;;;5032954;28;19974;-64
2022/09/18 12:58:52;;;;;;;;;;;14.60;99.90;;;;;;5032423;28;19967;-64
2022/09/18 13:01:24;;;;;;;;;;;14.60;99.90;;;;;;5031731;28;20010;-63
2022/09/18 13:03:54;;;;;;;;;;;14.60;99.90;;;;;;5031991;28;20536;-63
2022/09/18 13:06:26;;;;;;;;;;;14.50;99.90;;;;;;5032994;28;19967;-63
2022/09/18 13:08:56;;;;;;;;;;;14.50;99.90;;;;;;5031939;28;19976;-64
2022/09/18 13:11:28;;;;;;;;;;;14.60;99.90;;;;;;5032484;28;19973;-64
2022/09/18 13:13:57;;;;;;;;;;;14.70;99.90;;;;;;5032122;28;19967;-63
2022/09/18 13:16:31;;;;;;;;;;;14.90;99.90;;;;;;5032246;28;19969;-64
2022/09/18 13:19:02;;;;;;;;;;;14.90;99.90;;;;;;5032482;28;19974;-64
2022/09/18 13:21:33;;;;;;;;;;;14.90;99.90;;;;;;5034088;28;20436;-64
2022/09/18 13:24:01;;;;;;;;;;;14.90;99.90;;;;;;5033873;28;20054;-64
2022/09/18 13:26:30;;;;;;;;;;;14.90;99.90;;;;;;5032768;28;19967;-63
2022/09/18 13:28:58;;;;;;;;;;;14.90;99.90;;;;;;5031858;28;20061;-64
2022/09/18 13:31:27;;;;;;;;;;;15.10;99.90;;;;;;5030847;28;20439;-65
2022/09/18 13:33:56;;;;;;;;;;;15.00;99.90;;;;;;5031683;28;19974;-64
2022/09/18 13:36:25;;;;;;;;;;;15.20;99.90;;;;;;5031257;28;19980;-64
2022/09/18 13:38:55;;;;;;;;;;;15.20;99.90;;;;;;5031704;28;19968;-65
2022/09/18 13:41:23;;;;;;;;;;;15.30;99.90;;;;;;5031281;28;20065;-63
2022/09/18 13:43:52;;;;;;;;;;;15.40;99.90;;;;;;5030174;28;19970;-64
2022/09/18 13:46:30;;;;;;;;;;;15.30;99.90;;;;;;5031807;28;20005;-64
2022/09/18 13:49:00;;;;;;;;;;;15.30;99.90;;;;;;5022073;28;20365;-64
2022/09/18 13:51:31;;;;;;;;;;;15.30;99.90;;;;;;5030012;28;20157;-64
2022/09/18 13:54:15;;;;;;;;;;;15.30;99.90;;;;;;5030609;28;19963;-63
2022/09/18 13:57:02;;;;;;;;;;;15.30;99.90;;;;;;5027150;28;19977;-63
2022/09/18 13:59:43;;;;;;;;;;;15.30;99.90;;;;;;5030206;28;19966;-62
2022/09/18 14:02:22;;;;;;;;;;;15.20;99.90;;;;;;5031893;28;19966;-63
2022/09/18 14:05:08;;;;;;;;;;;15.20;99.90;;;;;;5026490;28;19967;-64
2022/09/18 14:07:50;;;;;;;;;;;15.10;99.90;;;;;;5028232;28;19971;-64
2022/09/18 14:10:23;;;;;;;;;;;14.90;99.90;;;;;;5031371;28;19974;-63
2022/09/18 14:13:11;;;;;;;;;;;14.80;99.90;;;;;;5030403;28;19974;-64
2022/09/18 14:15:38;;;;;;;;;;;14.80;99.90;;;;;;5027688;28;19972;-63
2022/09/18 14:18:13;;;;;;;;;;;14.80;99.90;;;;;;5030765;28;20058;-63
2022/09/18 14:20:41;;;;;;;;;;;14.90;99.90;;;;;;5028490;28;19973;-63
2022/09/18 14:23:40;;;;;;;;;;;14.90;99.90;;;;;;5033634;28;19979;-63
2022/09/18 14:26:29;;;;;;;;;;;14.80;99.90;;;;;;5026757;28;19966;-63
2022/09/18 14:28:58;;;;;;;;;;;14.80;99.90;;;;;;5029003;28;19969;-63
2022/09/18 14:31:27;;;;;;;;;;;14.70;99.90;;;;;;5030744;28;19974;-63
2022/09/18 14:33:55;;;;;;;;;;;14.60;99.90;;;;;;5031534;28;19968;-63